Aviation Digital Data Service (ADDS)

Output produced by METARs form (1210 UTC 24 February 2018)
found at http://aviationweather.gov/adds/metars/
 
TAF EFJY 241128Z 2412/2512 34009KT CAVOK 
     TEMPO 2501/2510 5000 -SN 
     PROB30 2501/2510 BKN013
       
TAF EFTP 241128Z 2412/2512 01007KT CAVOK 
     PROB40 
     TEMPO 2504/2512 6000 -SN
       
TAF EFKU 241130Z 2412/2512 33008KT 9999 FEW030 
     TEMPO 2412/2424 6000 -SN 
     TEMPO 2500/2512 6000 -SHSN
       
TAF EFKI 241130Z 2412/2417 02002KT 9999 FEW020 
     TEMPO 2412/2417 6000 -SN
       
TAF EFTU 241131Z 2412/2512 03006KT CAVOK